Time;durP1;ratioP1;P1;durP2;ratioP2;P2;SDS_P1;SDS_P2;PMS_P1;PMS_P2;Temp;Humidity;BMP_temperature;BMP_pressure;BME280_temperature;BME280_humidity;BME280_pressure;Samples;Min_cycle;Max_cycle;Signal;HPM_P1;HPM_P2
2023/09/03 00:00:23;;;;;;;5.30;4.53;;;;;;;;;;4971412;28;20030;-86
2023/09/03 00:02:48;;;;;;;5.72;4.57;;;;;;;;;;4986997;28;20038;-87
2023/09/03 00:05:13;;;;;;;5.10;4.35;;;;;;;;;;4976065;28;20019;-87
2023/09/03 00:07:39;;;;;;;5.22;4.38;;;;;;;;;;4970559;28;20045;-87
2023/09/03 00:10:04;;;;;;;5.93;4.45;;;;;;;;;;4975610;28;20114;-87
2023/09/03 00:12:30;;;;;;;6.18;4.10;;;;;;;;;;4990819;28;20033;-84
2023/09/03 00:14:55;;;;;;;5.70;4.20;;;;;;;;;;4984110;28;20415;-87
2023/09/03 00:17:21;;;;;;;6.65;5.10;;;;;;;;;;4986314;28;20031;-87
2023/09/03 00:19:46;;;;;;;7.68;5.18;;;;;;;;;;4964819;28;20506;-86
2023/09/03 00:22:12;;;;;;;6.70;4.63;;;;;;;;;;4980166;28;20039;-86
2023/09/03 00:24:37;;;;;;;7.07;4.75;;;;;;;;;;4985133;28;20509;-85
2023/09/03 00:27:03;;;;;;;5.15;4.10;;;;;;;;;;4972657;28;20019;-88
2023/09/03 00:29:29;;;;;;;5.65;3.97;;;;;;;;;;4990744;28;20489;-88
2023/09/03 00:31:55;;;;;;;6.82;4.60;;;;;;;;;;4965664;28;20236;-87
2023/09/03 00:34:21;;;;;;;5.93;4.32;;;;;;;;;;4970381;28;20026;-86
2023/09/03 00:36:46;;;;;;;6.32;4.10;;;;;;;;;;4991384;28;20455;-87
2023/09/03 00:39:12;;;;;;;6.22;4.47;;;;;;;;;;4995696;28;20064;-87
2023/09/03 00:41:37;;;;;;;6.03;4.60;;;;;;;;;;4974855;28;20418;-87
2023/09/03 00:44:03;;;;;;;6.20;4.68;;;;;;;;;;4990884;28;20033;-87
2023/09/03 00:46:29;;;;;;;6.20;4.20;;;;;;;;;;4986856;28;20037;-87
2023/09/03 00:48:56;;;;;;;5.03;4.22;;;;;;;;;;4972645;28;20034;-87
2023/09/03 00:51:21;;;;;;;5.47;4.00;;;;;;;;;;4977378;28;20109;-88
2023/09/03 00:53:51;;;;;;;6.28;4.22;;;;;;;;;;4978124;28;20173;-86
2023/09/03 00:56:16;;;;;;;6.00;4.55;;;;;;;;;;4980382;28;20068;-86
2023/09/03 00:58:42;;;;;;;5.72;4.57;;;;;;;;;;4993468;28;20026;-87
2023/09/03 01:01:09;;;;;;;7.72;4.78;;;;;;;;;;4974358;28;20434;-87
2023/09/03 01:03:35;;;;;;;5.85;4.50;;;;;;;;;;4973120;28;20022;-88
2023/09/03 01:06:01;;;;;;;6.80;5.03;;;;;;;;;;4979008;28;20042;-87
2023/09/03 01:08:28;;;;;;;7.28;4.72;;;;;;;;;;4989225;28;20109;-87
2023/09/03 01:10:56;;;;;;;5.65;4.60;;;;;;;;;;4967792;28;20372;-87
2023/09/03 01:13:35;;;;;;;10.98;5.90;;;;;;;;;;4984397;28;20034;-87
2023/09/03 01:16:07;;;;;;;6.72;5.20;;;;;;;;;;4978307;28;20474;-86
2023/09/03 01:18:32;;;;;;;6.03;4.30;;;;;;;;;;4979632;28;20026;-87
2023/09/03 01:21:30;;;;;;;6.13;4.88;;;;;;;;;;4989851;28;20483;-87
2023/09/03 01:24:23;;;;;;;6.25;4.55;;;;;;;;;;4990327;28;20026;-84
2023/09/03 01:26:57;;;;;;;6.43;4.75;;;;;;;;;;4972075;28;20077;-84
2023/09/03 01:29:23;;;;;;;6.18;4.70;;;;;;;;;;4969194;28;20510;-84
2023/09/03 01:31:50;;;;;;;5.90;4.72;;;;;;;;;;4969432;28;20499;-84
2023/09/03 01:34:16;;;;;;;5.72;4.50;;;;;;;;;;4986060;28;20101;-83
2023/09/03 01:36:43;;;;;;;6.63;4.40;;;;;;;;;;4984582;28;20533;-83
2023/09/03 01:39:08;;;;;;;6.40;4.72;;;;;;;;;;4966314;28;20514;-83
2023/09/03 01:41:35;;;;;;;7.10;4.30;;;;;;;;;;4967067;28;20026;-83
2023/09/03 01:44:02;;;;;;;6.15;5.03;;;;;;;;;;4985620;28;20080;-83
2023/09/03 01:46:36;;;;;;;5.00;4.28;;;;;;;;;;4994969;28;20041;-84
2023/09/03 01:49:11;;;;;;;6.53;4.97;;;;;;;;;;4995760;28;20030;-84
2023/09/03 01:52:03;;;;;;;6.15;4.55;;;;;;;;;;4984482;28;20555;-84
2023/09/03 01:54:40;;;;;;;6.95;4.32;;;;;;;;;;4981082;28;20112;-84
2023/09/03 01:57:16;;;;;;;5.90;4.60;;;;;;;;;;4985032;28;20041;-84
2023/09/03 01:59:43;;;;;;;6.10;4.50;;;;;;;;;;4983857;28;20089;-84
2023/09/03 02:02:10;;;;;;;7.55;4.50;;;;;;;;;;4984466;28;20044;-84
2023/09/03 02:04:36;;;;;;;5.78;4.70;;;;;;;;;;4984076;28;20031;-83
2023/09/03 02:07:02;;;;;;;6.82;4.40;;;;;;;;;;4981519;28;20026;-84
2023/09/03 02:09:27;;;;;;;6.40;4.63;;;;;;;;;;4982279;28;20022;-84
2023/09/03 02:11:53;;;;;;;6.65;4.35;;;;;;;;;;4982627;28;20080;-84
2023/09/03 02:14:18;;;;;;;6.43;5.05;;;;;;;;;;4964577;28;20117;-84
2023/09/03 02:16:43;;;;;;;6.07;4.70;;;;;;;;;;4963227;28;20042;-84
2023/09/03 02:19:09;;;;;;;6.03;4.50;;;;;;;;;;4968614;28;20038;-84
2023/09/03 02:21:34;;;;;;;6.15;4.53;;;;;;;;;;4970954;28;20032;-84
2023/09/03 02:24:00;;;;;;;7.28;4.70;;;;;;;;;;4971302;28;20478;-84
2023/09/03 02:26:25;;;;;;;5.43;4.60;;;;;;;;;;4966201;28;20126;-83
2023/09/03 02:28:51;;;;;;;5.75;4.53;;;;;;;;;;4973120;28;20041;-83
2023/09/03 02:31:16;;;;;;;5.60;4.60;;;;;;;;;;4990162;28;20359;-83
2023/09/03 02:33:41;;;;;;;6.93;4.88;;;;;;;;;;4974369;28;20073;-83
2023/09/03 02:36:07;;;;;;;6.72;5.13;;;;;;;;;;4970271;28;20022;-83
2023/09/03 02:38:32;;;;;;;7.03;5.07;;;;;;;;;;4966150;28;20036;-83
2023/09/03 02:40:57;;;;;;;6.85;4.85;;;;;;;;;;4975233;28;20382;-85
2023/09/03 02:43:23;;;;;;;6.35;4.70;;;;;;;;;;4973616;28;20031;-85
2023/09/03 02:45:49;;;;;;;6.05;4.55;;;;;;;;;;4974533;28;20065;-86
2023/09/03 02:48:14;;;;;;;8.50;4.60;;;;;;;;;;4974981;28;20037;-85
2023/09/03 02:50:40;;;;;;;6.78;4.80;;;;;;;;;;4987430;28;20514;-86
2023/09/03 02:53:05;;;;;;;7.75;4.88;;;;;;;;;;4990443;28;20402;-86
2023/09/03 02:55:31;;;;;;;5.78;4.45;;;;;;;;;;4972296;28;20414;-86
2023/09/03 02:57:57;;;;;;;6.22;4.75;;;;;;;;;;4992308;28;20030;-85
2023/09/03 03:00:23;;;;;;;6.28;5.10;;;;;;;;;;4984677;28;20058;-86
2023/09/03 03:02:49;;;;;;;6.07;4.70;;;;;;;;;;4987349;28;20083;-85
2023/09/03 03:05:14;;;;;;;7.57;5.07;;;;;;;;;;4965121;28;20031;-85
2023/09/03 03:07:41;;;;;;;6.70;4.78;;;;;;;;;;4970597;28;20617;-86
2023/09/03 03:10:07;;;;;;;7.00;4.57;;;;;;;;;;4966798;28;20026;-86
2023/09/03 03:12:33;;;;;;;7.40;5.05;;;;;;;;;;4986323;28;20022;-86
2023/09/03 03:14:58;;;;;;;7.57;5.18;;;;;;;;;;4972738;28;20402;-83
2023/09/03 03:17:23;;;;;;;7.50;5.35;;;;;;;;;;4991469;28;20042;-83
2023/09/03 03:19:50;;;;;;;6.80;5.00;;;;;;;;;;4970452;28;20027;-83
2023/09/03 03:22:15;;;;;;;7.05;5.53;;;;;;;;;;4981771;28;20023;-82
2023/09/03 03:24:41;;;;;;;6.45;4.82;;;;;;;;;;4966165;28;20053;-83
2023/09/03 03:27:06;;;;;;;7.07;5.28;;;;;;;;;;4960627;28;20034;-83
2023/09/03 03:29:32;;;;;;;7.10;5.25;;;;;;;;;;4963824;28;20033;-83
2023/09/03 03:31:58;;;;;;;8.80;4.97;;;;;;;;;;4964319;28;20029;-83
2023/09/03 03:34:25;;;;;;;6.28;4.60;;;;;;;;;;4982212;28;20490;-84
2023/09/03 03:36:50;;;;;;;5.65;4.85;;;;;;;;;;4982086;28;20030;-83
2023/09/03 03:39:16;;;;;;;6.05;4.93;;;;;;;;;;4964579;28;21700;-83
2023/09/03 03:41:41;;;;;;;6.88;4.88;;;;;;;;;;4965489;28;20030;-85
2023/09/03 03:44:07;;;;;;;7.20;4.68;;;;;;;;;;4965237;28;20109;-83
2023/09/03 03:46:32;;;;;;;7.35;5.00;;;;;;;;;;4970339;28;20025;-83
2023/09/03 03:48:57;;;;;;;5.88;4.78;;;;;;;;;;4991706;28;20022;-82
2023/09/03 03:51:23;;;;;;;5.85;4.65;;;;;;;;;;4964139;28;20475;-83
2023/09/03 03:53:49;;;;;;;7.20;4.80;;;;;;;;;;4982677;28;20088;-83
2023/09/03 03:56:15;;;;;;;5.80;4.25;;;;;;;;;;4964872;28;20053;-83
2023/09/03 03:58:42;;;;;;;7.55;4.68;;;;;;;;;;4979108;28;20126;-83
2023/09/03 04:01:15;;;;;;;7.93;5.00;;;;;;;;;;4961564;28;20027;-83
2023/09/03 04:03:41;;;;;;;8.00;5.45;;;;;;;;;;4980476;28;20468;-86
2023/09/03 04:06:06;;;;;;;6.93;4.93;;;;;;;;;;4982592;28;20040;-87
2023/09/03 04:08:33;;;;;;;6.88;5.10;;;;;;;;;;4980068;28;20113;-87
2023/09/03 04:11:00;;;;;;;6.80;4.93;;;;;;;;;;4961499;28;20367;-87
2023/09/03 04:13:27;;;;;;;6.05;4.68;;;;;;;;;;4963633;28;20047;-84
2023/09/03 04:15:56;;;;;;;6.53;4.68;;;;;;;;;;4981496;28;20569;-84
2023/09/03 04:18:23;;;;;;;6.60;5.13;;;;;;;;;;4962145;28;20117;-84
2023/09/03 04:20:57;;;;;;;8.23;5.40;;;;;;;;;;4979826;28;20475;-83
2023/09/03 04:23:24;;;;;;;7.50;5.07;;;;;;;;;;4965258;28;20522;-84
2023/09/03 04:25:53;;;;;;;7.15;4.80;;;;;;;;;;4990543;28;20038;-83
2023/09/03 04:28:21;;;;;;;5.97;4.93;;;;;;;;;;4966139;28;20211;-83
2023/09/03 04:30:53;;;;;;;5.82;4.72;;;;;;;;;;4967287;28;20116;-84
2023/09/03 04:33:18;;;;;;;6.35;5.10;;;;;;;;;;4982624;28;20137;-84
2023/09/03 04:35:43;;;;;;;6.82;5.30;;;;;;;;;;4969024;28;20108;-84
2023/09/03 04:38:09;;;;;;;7.45;4.90;;;;;;;;;;4966700;28;20054;-83
2023/09/03 04:40:35;;;;;;;6.95;5.53;;;;;;;;;;4966726;28;20066;-84
2023/09/03 04:43:01;;;;;;;6.07;5.00;;;;;;;;;;4981617;28;20066;-83
2023/09/03 04:45:27;;;;;;;6.60;4.75;;;;;;;;;;4965440;28;20026;-83
2023/09/03 04:47:52;;;;;;;7.30;4.90;;;;;;;;;;4966723;28;20128;-84
2023/09/03 04:50:18;;;;;;;7.72;5.30;;;;;;;;;;4984831;28;20053;-83
2023/09/03 04:52:45;;;;;;;7.07;5.22;;;;;;;;;;4965367;28;20026;-84
2023/09/03 04:55:11;;;;;;;7.18;5.13;;;;;;;;;;4964002;28;20034;-83
2023/09/03 04:57:36;;;;;;;6.53;5.50;;;;;;;;;;4968281;28;20034;-84
2023/09/03 05:00:04;;;;;;;7.47;5.55;;;;;;;;;;4965500;28;20549;-85
2023/09/03 05:02:29;;;;;;;7.70;5.60;;;;;;;;;;4984999;28;20089;-85
2023/09/03 05:04:54;;;;;;;7.13;5.25;;;;;;;;;;4969600;28;20026;-85
2023/09/03 05:07:20;;;;;;;8.48;5.80;;;;;;;;;;4967152;28;20033;-86
2023/09/03 05:09:45;;;;;;;7.35;5.80;;;;;;;;;;4985526;28;20026;-86
2023/09/03 05:12:10;;;;;;;6.93;5.50;;;;;;;;;;4965656;28;20042;-86
2023/09/03 05:14:36;;;;;;;7.22;5.38;;;;;;;;;;4983369;28;20113;-84
2023/09/03 05:17:01;;;;;;;7.63;5.53;;;;;;;;;;4968154;28;20018;-83
2023/09/03 05:19:26;;;;;;;7.80;5.82;;;;;;;;;;4966682;28;20031;-83
2023/09/03 05:21:52;;;;;;;6.93;5.57;;;;;;;;;;4964446;28;20085;-84
2023/09/03 05:24:17;;;;;;;6.97;5.53;;;;;;;;;;4964456;28;20035;-88
2023/09/03 05:26:43;;;;;;;8.70;5.78;;;;;;;;;;4964557;28;20530;-86
2023/09/03 05:29:09;;;;;;;8.90;6.28;;;;;;;;;;4983926;28;20081;-88
2023/09/03 05:31:35;;;;;;;7.15;5.35;;;;;;;;;;4974868;28;20061;-87
2023/09/03 05:34:01;;;;;;;7.47;5.75;;;;;;;;;;4973273;28;20093;-88
2023/09/03 05:36:27;;;;;;;7.88;6.40;;;;;;;;;;4967282;28;20026;-87
2023/09/03 05:38:52;;;;;;;8.30;6.40;;;;;;;;;;4976460;28;20030;-88
2023/09/03 05:41:17;;;;;;;7.35;5.95;;;;;;;;;;4989239;28;20065;-88
2023/09/03 05:43:43;;;;;;;7.40;5.90;;;;;;;;;;4967965;28;20089;-87
2023/09/03 05:46:08;;;;;;;7.90;6.07;;;;;;;;;;4970498;28;20058;-87
2023/09/03 05:48:34;;;;;;;8.95;6.10;;;;;;;;;;4995949;28;20037;-88
2023/09/03 05:51:03;;;;;;;8.07;5.88;;;;;;;;;;4984705;28;20049;-87
2023/09/03 05:53:32;;;;;;;8.77;6.55;;;;;;;;;;4985509;28;20129;-88
2023/09/03 05:56:11;;;;;;;9.18;6.38;;;;;;;;;;4970174;28;20386;-88
2023/09/03 05:58:37;;;;;;;8.10;6.40;;;;;;;;;;4969502;28;20030;-87
2023/09/03 06:01:07;;;;;;;9.98;7.03;;;;;;;;;;4982333;28;20105;-87
2023/09/03 06:03:33;;;;;;;8.80;6.53;;;;;;;;;;4967050;28;20478;-87
2023/09/03 06:06:09;;;;;;;8.13;6.78;;;;;;;;;;4964823;28;20117;-88
2023/09/03 06:08:35;;;;;;;9.02;6.72;;;;;;;;;;4967057;28;20069;-88
2023/09/03 06:11:02;;;;;;;9.75;7.20;;;;;;;;;;4985811;28;20113;-88
2023/09/03 06:13:27;;;;;;;9.07;7.40;;;;;;;;;;4984286;28;20049;-86
2023/09/03 06:15:54;;;;;;;10.85;7.95;;;;;;;;;;4983041;28;20065;-84
2023/09/03 06:18:19;;;;;;;9.50;7.00;;;;;;;;;;4982479;28;20037;-84
2023/09/03 06:20:45;;;;;;;8.85;6.43;;;;;;;;;;4966689;28;20043;-83
2023/09/03 06:23:15;;;;;;;9.10;6.97;;;;;;;;;;4978907;28;20038;-84
2023/09/03 06:25:46;;;;;;;8.73;6.43;;;;;;;;;;4979602;28;20513;-84
2023/09/03 06:28:12;;;;;;;8.95;6.72;;;;;;;;;;4961303;28;20113;-84
2023/09/03 06:30:37;;;;;;;9.07;6.40;;;;;;;;;;4966450;28;20048;-83
2023/09/03 06:33:03;;;;;;;10.15;7.07;;;;;;;;;;4964020;28;20085;-83
2023/09/03 06:35:29;;;;;;;8.13;6.75;;;;;;;;;;4979834;28;20085;-84
2023/09/03 06:37:55;;;;;;;8.85;6.90;;;;;;;;;;4982164;28;20134;-83
2023/09/03 06:40:22;;;;;;;9.77;7.47;;;;;;;;;;4964880;28;20034;-84
2023/09/03 06:42:47;;;;;;;8.48;6.57;;;;;;;;;;4965069;28;20610;-83
2023/09/03 06:45:12;;;;;;;11.43;7.68;;;;;;;;;;4963683;28;20030;-84
2023/09/03 06:47:38;;;;;;;8.60;7.03;;;;;;;;;;4981053;28;20042;-83
2023/09/03 06:50:07;;;;;;;8.20;6.55;;;;;;;;;;4982593;28;20027;-83
2023/09/03 06:52:36;;;;;;;10.90;6.90;;;;;;;;;;4960038;28;21579;-82
2023/09/03 06:55:02;;;;;;;9.20;6.80;;;;;;;;;;4984432;28;20026;-83
2023/09/03 06:57:27;;;;;;;10.35;7.63;;;;;;;;;;4979892;28;20026;-83
2023/09/03 06:59:56;;;;;;;10.43;7.70;;;;;;;;;;4961376;28;20096;-83
2023/09/03 07:02:22;;;;;;;11.10;7.80;;;;;;;;;;4965526;28;20030;-83
2023/09/03 07:04:49;;;;;;;10.27;7.95;;;;;;;;;;4966800;28;20493;-83
2023/09/03 07:07:14;;;;;;;13.20;9.77;;;;;;;;;;4985673;28;20030;-83
2023/09/03 07:09:40;;;;;;;12.40;9.40;;;;;;;;;;4989913;28;20026;-83
2023/09/03 07:12:06;;;;;;;13.80;9.50;;;;;;;;;;4970653;28;20023;-83
2023/09/03 07:14:32;;;;;;;12.98;9.88;;;;;;;;;;4969122;28;20058;-83
2023/09/03 07:16:57;;;;;;;15.93;10.43;;;;;;;;;;4971527;28;20046;-83
2023/09/03 07:19:23;;;;;;;14.35;10.68;;;;;;;;;;4965185;28;20181;-84
2023/09/03 07:21:48;;;;;;;14.52;10.30;;;;;;;;;;4967164;28;20049;-83
2023/09/03 07:24:14;;;;;;;15.45;10.45;;;;;;;;;;4972978;28;20023;-83
2023/09/03 07:26:39;;;;;;;14.02;10.48;;;;;;;;;;4971124;28;20037;-83
2023/09/03 07:29:05;;;;;;;13.18;9.80;;;;;;;;;;4983495;28;20022;-87
2023/09/03 07:31:40;;;;;;;13.18;10.10;;;;;;;;;;4966617;28;20390;-86
2023/09/03 07:34:07;;;;;;;14.38;10.30;;;;;;;;;;4962430;28;20026;-80
2023/09/03 07:36:34;;;;;;;13.70;9.80;;;;;;;;;;4980757;28;20108;-80
2023/09/03 07:38:59;;;;;;;15.20;9.93;;;;;;;;;;4964459;28;20037;-80
2023/09/03 07:41:24;;;;;;;14.18;10.15;;;;;;;;;;4964439;28;20026;-80
2023/09/03 07:43:51;;;;;;;14.20;9.95;;;;;;;;;;4981465;28;20422;-84
2023/09/03 07:46:17;;;;;;;14.07;10.40;;;;;;;;;;4982321;28;20471;-84
2023/09/03 07:48:42;;;;;;;15.38;10.90;;;;;;;;;;4967151;28;20042;-85
2023/09/03 07:51:08;;;;;;;14.27;9.73;;;;;;;;;;4981691;28;20022;-84
2023/09/03 07:53:33;;;;;;;14.82;10.73;;;;;;;;;;4987239;28;20033;-85
2023/09/03 07:55:58;;;;;;;14.48;10.20;;;;;;;;;;4970699;28;20041;-84
2023/09/03 07:58:23;;;;;;;17.38;10.35;;;;;;;;;;4987068;28;20145;-84
2023/09/03 08:00:50;;;;;;;12.93;9.52;;;;;;;;;;4972380;28;20113;-85
2023/09/03 08:03:15;;;;;;;15.68;11.02;;;;;;;;;;4976357;28;20030;-85
2023/09/03 08:05:40;;;;;;;13.40;10.18;;;;;;;;;;4992627;28;20030;-84
2023/09/03 08:08:06;;;;;;;14.75;10.45;;;;;;;;;;4971469;28;20054;-85
2023/09/03 08:10:32;;;;;;;13.77;10.48;;;;;;;;;;4966478;28;20124;-84
2023/09/03 08:13:00;;;;;;;14.52;10.27;;;;;;;;;;4985566;28;20065;-85
2023/09/03 08:15:28;;;;;;;16.33;10.18;;;;;;;;;;4982720;28;20037;-85
2023/09/03 08:17:54;;;;;;;18.13;11.05;;;;;;;;;;4963951;28;20080;-85
2023/09/03 08:20:21;;;;;;;13.77;10.73;;;;;;;;;;4975839;28;20378;-84
2023/09/03 08:22:46;;;;;;;15.48;11.10;;;;;;;;;;4978309;28;20027;-85
2023/09/03 08:25:11;;;;;;;14.13;10.45;;;;;;;;;;4975541;28;20026;-85
2023/09/03 08:27:38;;;;;;;14.15;10.25;;;;;;;;;;4981776;28;20030;-86
2023/09/03 08:30:04;;;;;;;15.80;10.82;;;;;;;;;;4975884;28;20710;-84
2023/09/03 08:32:29;;;;;;;15.95;11.13;;;;;;;;;;4964479;28;20033;-85
2023/09/03 08:34:55;;;;;;;14.15;11.05;;;;;;;;;;4961200;28;20394;-83
2023/09/03 08:37:20;;;;;;;13.50;10.27;;;;;;;;;;4978100;28;20061;-83
2023/09/03 08:39:48;;;;;;;15.32;11.15;;;;;;;;;;4962277;28;20126;-85
2023/09/03 08:42:15;;;;;;;14.77;11.15;;;;;;;;;;4964816;28;20486;-84
2023/09/03 08:44:55;;;;;;;14.20;10.80;;;;;;;;;;4963778;28;20041;-85
2023/09/03 08:47:21;;;;;;;14.85;10.48;;;;;;;;;;4964149;28;20113;-85
2023/09/03 08:49:47;;;;;;;15.43;10.25;;;;;;;;;;4966799;28;20029;-85
2023/09/03 08:52:13;;;;;;;14.75;10.93;;;;;;;;;;4980161;28;20076;-85
2023/09/03 08:54:39;;;;;;;16.50;11.02;;;;;;;;;;4985859;28;20076;-84
2023/09/03 08:57:05;;;;;;;13.57;10.65;;;;;;;;;;4985879;28;20030;-84
2023/09/03 08:59:31;;;;;;;14.05;10.60;;;;;;;;;;4966631;28;20030;-83
2023/09/03 09:01:57;;;;;;;14.18;10.95;;;;;;;;;;4981810;28;20545;-84
2023/09/03 09:04:29;;;;;;;16.15;10.73;;;;;;;;;;4980534;28;20407;-81
2023/09/03 09:06:57;;;;;;;16.95;9.82;;;;;;;;;;4965083;28;20042;-81
2023/09/03 09:09:25;;;;;;;13.40;10.38;;;;;;;;;;4983328;28;20116;-81
2023/09/03 09:12:12;;;;;;;14.48;10.00;;;;;;;;;;4985073;28;20478;-81
2023/09/03 09:14:52;;;;;;;14.68;10.13;;;;;;;;;;4985653;28;20030;-81
2023/09/03 09:17:17;;;;;;;13.73;10.65;;;;;;;;;;4957678;28;20439;-81
2023/09/03 09:19:43;;;;;;;12.23;9.70;;;;;;;;;;4977737;28;20034;-81
2023/09/03 09:22:08;;;;;;;13.90;9.95;;;;;;;;;;4959156;28;20069;-80
2023/09/03 09:24:44;;;;;;;13.02;10.15;;;;;;;;;;4959711;28;20482;-81
2023/09/03 09:27:14;;;;;;;11.52;8.32;;;;;;;;;;4959461;28;20026;-81
2023/09/03 09:29:39;;;;;;;12.88;9.23;;;;;;;;;;4964591;28;20034;-82
2023/09/03 09:32:19;;;;;;;13.07;8.70;;;;;;;;;;4981408;28;20030;-81
2023/09/03 09:34:45;;;;;;;14.48;9.85;;;;;;;;;;4981802;28;20041;-81
2023/09/03 09:37:12;;;;;;;10.13;7.93;;;;;;;;;;4966680;28;20037;-81
2023/09/03 09:39:45;;;;;;;11.13;7.88;;;;;;;;;;4962303;28;20049;-81
2023/09/03 09:42:18;;;;;;;10.50;8.13;;;;;;;;;;4980673;28;20084;-81
2023/09/03 09:44:52;;;;;;;12.63;8.50;;;;;;;;;;4982165;28;20030;-81
2023/09/03 09:47:19;;;;;;;10.43;8.20;;;;;;;;;;4977193;28;20053;-81
2023/09/03 09:49:48;;;;;;;11.25;7.75;;;;;;;;;;4959509;28;20033;-81
2023/09/03 09:52:17;;;;;;;9.30;7.20;;;;;;;;;;4965808;28;20085;-81
2023/09/03 09:54:43;;;;;;;11.38;8.00;;;;;;;;;;4976415;28;20041;-81
2023/09/03 09:57:16;;;;;;;11.25;8.10;;;;;;;;;;4963970;28;20037;-81
2023/09/03 09:59:42;;;;;;;9.88;7.95;;;;;;;;;;4959853;28;20800;-82
2023/09/03 10:02:15;;;;;;;8.82;7.05;;;;;;;;;;4965283;28;20511;-82
2023/09/03 10:04:48;;;;;;;11.13;7.22;;;;;;;;;;4965075;28;20034;-81
2023/09/03 10:07:14;;;;;;;10.02;6.97;;;;;;;;;;4966884;28;20034;-82
2023/09/03 10:09:40;;;;;;;8.90;6.05;;;;;;;;;;4949209;28;20666;-82
2023/09/03 10:12:08;;;;;;;9.75;6.68;;;;;;;;;;4967353;28;20109;-86
2023/09/03 10:14:34;;;;;;;10.45;7.75;;;;;;;;;;4968445;28;20466;-85
2023/09/03 10:17:05;;;;;;;9.05;6.97;;;;;;;;;;4988168;28;20430;-84
2023/09/03 10:19:55;;;;;;;7.70;6.20;;;;;;;;;;4972033;28;20057;-86
2023/09/03 10:22:23;;;;;;;9.88;7.32;;;;;;;;;;4963237;28;20041;-88
2023/09/03 10:25:02;;;;;;;9.98;7.38;;;;;;;;;;4983243;28;20038;-87
2023/09/03 10:27:33;;;;;;;11.00;6.93;;;;;;;;;;4970276;28;20105;-88
2023/09/03 10:30:04;;;;;;;9.35;6.78;;;;;;;;;;4980863;28;20037;-87
2023/09/03 10:32:31;;;;;;;9.20;6.23;;;;;;;;;;4968397;28;20026;-86
2023/09/03 10:34:57;;;;;;;7.80;5.82;;;;;;;;;;4978933;28;20034;-86
2023/09/03 10:37:36;;;;;;;10.02;7.32;;;;;;;;;;4971081;28;20033;-85
2023/09/03 10:40:21;;;;;;;8.95;6.25;;;;;;;;;;4969091;28;20038;-86
2023/09/03 10:43:00;;;;;;;6.68;5.18;;;;;;;;;;4972551;28;20088;-85
2023/09/03 10:45:25;;;;;;;6.95;5.05;;;;;;;;;;4988748;28;20030;-85
2023/09/03 10:48:05;;;;;;;7.03;5.10;;;;;;;;;;4986443;28;20132;-85
2023/09/03 10:50:45;;;;;;;7.90;5.32;;;;;;;;;;4966112;28;20022;-85
2023/09/03 10:53:35;;;;;;;7.90;5.35;;;;;;;;;;4966755;28;20378;-86
2023/09/03 10:56:09;;;;;;;10.57;6.25;;;;;;;;;;4972200;28;20025;-86
2023/09/03 10:58:34;;;;;;;7.70;5.45;;;;;;;;;;4962909;28;20026;-85
2023/09/03 11:01:15;;;;;;;8.70;4.80;;;;;;;;;;4971048;28;20119;-85
2023/09/03 11:03:48;;;;;;;8.30;5.22;;;;;;;;;;4969801;28;20888;-86
2023/09/03 11:06:21;;;;;;;;;;;;;;;;;;4967145;28;20018;-84
2023/09/03 11:09:09;;;;;;;8.63;6.57;;;;;;;;;;4969510;28;20004;-85
2023/09/03 11:11:38;;;;;;;8.02;5.47;;;;;;;;;;4954752;28;20556;-85
2023/09/03 11:14:06;;;;;;;8.43;6.15;;;;;;;;;;4966797;28;20116;-86
2023/09/03 11:16:32;;;;;;;8.65;6.05;;;;;;;;;;4968494;28;20057;-85
2023/09/03 11:18:59;;;;;;;7.68;5.97;;;;;;;;;;4985970;28;20034;-88
2023/09/03 11:21:25;;;;;;;7.25;5.05;;;;;;;;;;4984520;28;20096;-86
2023/09/03 11:24:02;;;;;;;8.73;5.53;;;;;;;;;;4969370;28;20876;-83
2023/09/03 11:26:31;;;;;;;8.30;5.40;;;;;;;;;;4983550;28;20489;-82
2023/09/03 11:28:58;;;;;;;8.13;5.20;;;;;;;;;;4963918;28;20081;-83
2023/09/03 11:31:24;;;;;;;6.60;4.43;;;;;;;;;;4987756;28;20097;-83
2023/09/03 11:33:50;;;;;;;14.07;10.93;;;;;;;;;;4966029;28;20038;-83
2023/09/03 11:36:24;;;;;;;12.52;9.50;;;;;;;;;;4967742;28;20034;-84
2023/09/03 11:38:55;;;;;;;9.40;6.72;;;;;;;;;;4963439;28;20026;-84
2023/09/03 11:41:21;;;;;;;7.20;4.68;;;;;;;;;;4966095;28;20509;-83
2023/09/03 11:43:46;;;;;;;6.47;4.70;;;;;;;;;;4984302;28;20054;-83
2023/09/03 11:46:14;;;;;;;7.90;4.47;;;;;;;;;;4982251;28;20105;-83
2023/09/03 11:48:40;;;;;;;5.57;3.97;;;;;;;;;;4963720;28;20041;-82
2023/09/03 11:51:06;;;;;;;7.82;5.35;;;;;;;;;;4963313;28;20028;-82
2023/09/03 11:53:42;;;;;;;5.97;4.10;;;;;;;;;;4980279;28;20124;-83
2023/09/03 11:56:12;;;;;;;6.28;3.47;;;;;;;;;;4967380;28;20033;-83
2023/09/03 11:58:38;;;;;;;4.72;3.00;;;;;;;;;;4964002;28;20038;-81
2023/09/03 12:01:04;;;;;;;4.40;3.35;;;;;;;;;;4966185;28;20439;-81
2023/09/03 12:03:29;;;;;;;8.57;4.07;;;;;;;;;;4973582;28;20037;-84
2023/09/03 12:05:55;;;;;;;8.52;4.50;;;;;;;;;;4958569;28;20038;-83
2023/09/03 12:08:20;;;;;;;6.40;4.47;;;;;;;;;;4963732;28;20049;-82
2023/09/03 12:10:49;;;;;;;6.72;4.60;;;;;;;;;;4982873;28;20072;-82
2023/09/03 12:13:29;;;;;;;5.63;3.95;;;;;;;;;;4967183;28;20049;-82
2023/09/03 12:16:09;;;;;;;6.82;3.65;;;;;;;;;;4967526;28;20052;-82
2023/09/03 12:18:35;;;;;;;6.15;3.65;;;;;;;;;;4968256;28;20030;-83
2023/09/03 12:21:01;;;;;;;5.90;3.78;;;;;;;;;;4957864;28;20581;-82
2023/09/03 12:23:29;;;;;;;5.70;3.90;;;;;;;;;;4960575;28;20553;-82
2023/09/03 12:25:54;;;;;;;6.30;3.88;;;;;;;;;;4960608;28;20057;-83
2023/09/03 12:28:35;;;;;;;5.00;3.75;;;;;;;;;;4983783;28;20537;-83
2023/09/03 12:31:02;;;;;;;5.72;3.40;;;;;;;;;;4980623;28;20040;-83
2023/09/03 12:33:34;;;;;;;5.00;3.20;;;;;;;;;;4960885;28;20034;-83
2023/09/03 12:36:13;;;;;;;7.28;4.20;;;;;;;;;;4974501;28;20072;-82
2023/09/03 12:38:48;;;;;;;5.63;3.35;;;;;;;;;;4955477;28;20080;-84
2023/09/03 12:41:14;;;;;;;4.88;3.28;;;;;;;;;;4957451;28;20034;-83
2023/09/03 12:43:41;;;;;;;4.50;2.92;;;;;;;;;;4961205;28;20038;-86
2023/09/03 12:46:08;;;;;;;4.93;3.58;;;;;;;;;;4969624;28;20078;-85
2023/09/03 12:48:33;;;;;;;4.32;2.70;;;;;;;;;;4959892;28;20031;-87
2023/09/03 12:50:59;;;;;;;8.20;6.30;;;;;;;;;;4971118;28;20539;-84
2023/09/03 12:53:24;;;;;;;7.80;5.03;;;;;;;;;;4979870;28;20618;-85
2023/09/03 12:55:50;;;;;;;7.72;4.30;;;;;;;;;;5012332;28;20026;-87
2023/09/03 12:58:15;;;;;;;5.85;4.20;;;;;;;;;;4997967;28;20492;-87
2023/09/03 13:00:40;;;;;;;5.68;3.42;;;;;;;;;;4992829;28;20485;-85
2023/09/03 13:03:06;;;;;;;5.55;3.03;;;;;;;;;;4991623;28;20113;-85
2023/09/03 13:05:31;;;;;;;3.22;2.13;;;;;;;;;;4991373;28;20037;-87
2023/09/03 13:07:57;;;;;;;4.25;2.67;;;;;;;;;;4990402;28;20648;-86
2023/09/03 13:10:22;;;;;;;5.03;3.00;;;;;;;;;;5007209;28;20033;-87
2023/09/03 13:12:47;;;;;;;6.03;3.20;;;;;;;;;;4984892;28;20041;-86
2023/09/03 13:15:15;;;;;;;4.28;2.20;;;;;;;;;;5001126;28;20393;-84
2023/09/03 13:17:40;;;;;;;4.43;3.00;;;;;;;;;;5009673;28;20453;-87
2023/09/03 13:20:08;;;;;;;3.70;2.28;;;;;;;;;;4994235;28;20054;-87
2023/09/03 13:22:34;;;;;;;4.85;3.22;;;;;;;;;;4992076;28;20060;-87
2023/09/03 13:25:00;;;;;;;4.93;2.53;;;;;;;;;;4991990;28;20040;-85
2023/09/03 13:27:25;;;;;;;5.47;2.92;;;;;;;;;;4992134;28;20030;-87
2023/09/03 13:29:50;;;;;;;4.97;2.70;;;;;;;;;;4995470;28;20021;-86
2023/09/03 13:32:16;;;;;;;5.80;2.65;;;;;;;;;;5011395;28;20077;-87
2023/09/03 13:34:43;;;;;;;5.00;2.40;;;;;;;;;;4994149;28;20033;-86
2023/09/03 13:37:10;;;;;;;5.72;2.55;;;;;;;;;;4990535;28;20030;-88
2023/09/03 13:39:37;;;;;;;3.83;2.40;;;;;;;;;;4993218;28;20072;-86
2023/09/03 13:42:02;;;;;;;3.47;2.00;;;;;;;;;;4987467;28;20034;-86
2023/09/03 13:44:28;;;;;;;4.57;2.83;;;;;;;;;;5006026;28;20038;-87
2023/09/03 13:46:57;;;;;;;3.95;2.60;;;;;;;;;;4988242;28;20021;-85
2023/09/03 13:49:23;;;;;;;3.22;2.35;;;;;;;;;;4995608;28;20120;-86
2023/09/03 13:51:48;;;;;;;4.32;2.30;;;;;;;;;;4988607;28;20121;-86
2023/09/03 13:54:14;;;;;;;3.53;2.15;;;;;;;;;;4988244;28;20084;-81
2023/09/03 13:56:39;;;;;;;3.17;1.90;;;;;;;;;;5005886;28;20038;-81
2023/09/03 13:59:05;;;;;;;3.67;2.00;;;;;;;;;;4988967;28;20034;-81
2023/09/03 14:01:30;;;;;;;3.03;1.98;;;;;;;;;;4990595;28;20029;-81
2023/09/03 14:03:55;;;;;;;3.15;1.83;;;;;;;;;;5007402;28;20045;-82
2023/09/03 14:06:21;;;;;;;2.92;1.80;;;;;;;;;;4987132;28;20064;-82
2023/09/03 14:08:47;;;;;;;2.70;1.70;;;;;;;;;;5008155;28;20045;-81
2023/09/03 14:11:12;;;;;;;3.00;1.90;;;;;;;;;;4990950;28;20049;-80
2023/09/03 14:13:38;;;;;;;2.92;1.77;;;;;;;;;;4986297;28;20733;-83
2023/09/03 14:16:11;;;;;;;3.08;1.60;;;;;;;;;;5006519;28;20042;-82
2023/09/03 14:18:37;;;;;;;2.30;1.60;;;;;;;;;;4989790;28;20759;-82
2023/09/03 14:21:05;;;;;;;3.10;1.65;;;;;;;;;;4991297;28;20117;-81
2023/09/03 14:23:31;;;;;;;3.13;1.45;;;;;;;;;;5004970;28;20091;-83
2023/09/03 14:25:56;;;;;;;4.30;1.92;;;;;;;;;;5006137;28;20030;-83
2023/09/03 14:28:21;;;;;;;2.85;1.65;;;;;;;;;;4986403;28;20445;-82
2023/09/03 14:30:47;;;;;;;3.08;1.50;;;;;;;;;;4983832;28;20060;-82
2023/09/03 14:33:12;;;;;;;3.67;1.50;;;;;;;;;;4980518;28;20057;-83
2023/09/03 14:35:44;;;;;;;2.90;1.40;;;;;;;;;;5003940;28;20470;-82
2023/09/03 14:38:10;;;;;;;2.80;1.50;;;;;;;;;;4988623;28;20073;-83
2023/09/03 14:40:37;;;;;;;3.33;1.65;;;;;;;;;;5001654;28;20371;-82